createdAt,value
2022-12-31T00:06:31.088Z,16.75
2022-12-31T00:16:34.845Z,10.48
2022-12-31T00:26:38.198Z,11.18
2022-12-31T00:36:40.502Z,11.32
2022-12-31T00:56:44.699Z,8.50
2022-12-31T01:06:48.014Z,10.40
2022-12-31T01:16:52.490Z,9.85
2022-12-31T01:26:55.864Z,14.95
2022-12-31T01:36:57.847Z,8.82
2022-12-31T01:47:03.821Z,16.13
2022-12-31T01:57:07.653Z,9.80
2022-12-31T02:07:12.135Z,9.65
2022-12-31T02:17:25.228Z,9.95
2022-12-31T02:27:41.284Z,6.95
2022-12-31T02:37:50.405Z,11.27
2022-12-31T02:48:16.864Z,18.40
2022-12-31T02:58:29.579Z,12.73
2022-12-31T03:08:31.516Z,7.15
2022-12-31T03:18:34.820Z,7.07
2022-12-31T03:28:38.730Z,5.55
2022-12-31T03:38:42.300Z,2.33
2022-12-31T03:48:44.242Z,0.98
2022-12-31T03:58:47.525Z,0.30
2022-12-31T04:08:49.487Z,0.85
2022-12-31T04:18:52.814Z,0.40
2022-12-31T04:28:54.775Z,1.70
2022-12-31T04:38:58.409Z,5.68
2022-12-31T04:49:01.197Z,2.35
2022-12-31T04:59:05.190Z,5.18
2022-12-31T05:09:07.164Z,15.63
2022-12-31T05:19:10.546Z,18.63
2022-12-31T05:29:12.475Z,10.77
2022-12-31T05:39:15.881Z,7.88
2022-12-31T05:49:17.815Z,9.90
2022-12-31T05:59:21.952Z,13.82
2022-12-31T06:09:24.020Z,10.98
2022-12-31T06:19:27.465Z,21.40
2022-12-31T06:29:29.432Z,23.35
2022-12-31T06:39:32.762Z,22.00
2022-12-31T06:49:34.678Z,17.50
2022-12-31T06:59:38.719Z,22.70
2022-12-31T07:09:50.106Z,15.10
2022-12-31T07:20:02.229Z,15.05
2022-12-31T07:30:09.648Z,15.38
2022-12-31T07:40:18.577Z,17.73
2022-12-31T07:50:21.017Z,13.57
2022-12-31T08:00:25.997Z,24.98
2022-12-31T08:10:37.935Z,18.73
2022-12-31T08:20:55.606Z,13.00
2022-12-31T08:31:01.786Z,15.40
2022-12-31T08:41:15.882Z,24.45
2022-12-31T08:51:20.874Z,21.25
2022-12-31T09:01:28.086Z,26.85
2022-12-31T09:11:38.741Z,21.08
2022-12-31T09:21:43.087Z,26.55
2022-12-31T09:31:49.755Z,18.08
2022-12-31T09:42:18.289Z,21.15
2022-12-31T09:52:29.243Z,20.17
2022-12-31T10:02:52.432Z,19.55
2022-12-31T10:13:22.765Z,14.80
2022-12-31T10:33:43.931Z,11.05
2022-12-31T10:44:20.986Z,6.70
2022-12-31T10:55:00.048Z,7.95
2022-12-31T11:05:33.659Z,2.38
2022-12-31T11:15:55.502Z,3.45
2022-12-31T11:26:09.982Z,1.17
2022-12-31T11:36:24.542Z,2.10
2022-12-31T11:46:48.598Z,1.73
2022-12-31T11:56:59.246Z,7.97
2022-12-31T12:07:02.681Z,6.85
2022-12-31T12:17:09.347Z,14.25
2022-12-31T12:27:23.198Z,15.48
2022-12-31T12:37:29.172Z,24.60
2022-12-31T12:47:33.562Z,15.77
2022-12-31T12:57:46.402Z,18.40
2022-12-31T13:07:57.156Z,15.68
2022-12-31T13:18:07.871Z,19.77
2022-12-31T13:28:14.840Z,18.02
2022-12-31T13:38:20.734Z,20.50
2022-12-31T13:48:32.420Z,22.23
2022-12-31T13:58:37.847Z,22.42
2022-12-31T14:08:41.191Z,17.08
2022-12-31T14:18:49.222Z,19.40
2022-12-31T14:29:02.449Z,20.10
2022-12-31T14:39:19.597Z,26.73
2022-12-31T14:49:37.122Z,32.97
2022-12-31T14:59:40.775Z,36.72
2022-12-31T15:10:09.705Z,34.55
2022-12-31T15:20:47.843Z,51.75
2022-12-31T15:31:00.585Z,41.33
2022-12-31T15:41:14.526Z,40.28
2022-12-31T15:51:22.541Z,33.95
2022-12-31T16:01:28.563Z,40.50
2022-12-31T16:11:36.960Z,41.55
2022-12-31T16:21:39.016Z,36.38
2022-12-31T16:31:43.522Z,69.10
2022-12-31T16:41:45.508Z,32.17
2022-12-31T16:51:49.435Z,36.53
2022-12-31T17:01:53.184Z,40.72
2022-12-31T17:11:57.959Z,38.20
2022-12-31T17:22:00.348Z,35.38
2022-12-31T17:32:06.157Z,41.53
2022-12-31T17:42:08.994Z,32.42
2022-12-31T17:52:15.215Z,25.92
2022-12-31T18:02:17.285Z,38.63
2022-12-31T18:12:21.063Z,35.25
2022-12-31T18:22:23.077Z,46.75
2022-12-31T18:32:28.349Z,43.13
2022-12-31T18:42:30.338Z,35.33
2022-12-31T18:52:33.802Z,33.70
2022-12-31T19:02:35.869Z,37.97
2022-12-31T19:12:39.310Z,37.15
2022-12-31T19:22:41.312Z,50.30
2022-12-31T19:32:44.759Z,40.55
2022-12-31T19:42:46.702Z,37.83
2022-12-31T19:52:51.622Z,34.78
2022-12-31T20:02:54.878Z,41.65
2022-12-31T20:12:58.323Z,35.00
2022-12-31T20:23:00.277Z,42.83
2022-12-31T20:33:03.711Z,36.35
2022-12-31T20:43:05.723Z,38.83
2022-12-31T20:53:09.037Z,37.85
2022-12-31T21:03:36.802Z,32.47
2022-12-31T21:13:34.302Z,27.75
2022-12-31T21:23:36.246Z,31.02
2022-12-31T21:33:39.547Z,24.45
2022-12-31T21:43:41.500Z,27.65
2022-12-31T21:53:44.885Z,27.10
2022-12-31T22:03:46.908Z,17.98
2022-12-31T22:13:50.980Z,17.63
2022-12-31T22:23:54.421Z,16.92
2022-12-31T22:33:58.285Z,18.05
2022-12-31T22:44:04.621Z,17.85
2022-12-31T22:54:09.516Z,11.65
2022-12-31T23:04:11.539Z,10.00
2022-12-31T23:14:17.012Z,17.25
2022-12-31T23:24:24.486Z,13.45
2022-12-31T23:34:29.680Z,14.80
2022-12-31T23:44:31.631Z,8.82
2022-12-31T23:54:35.088Z,17.00
